sensor_id;sensor_type;location;lat;lon;timestamp;temperature;humidity
66422;DHT22;53228;51.380;0.098;2022-12-18T00:01:48;0.90;99.90
66422;DHT22;53228;51.380;0.098;2022-12-18T00:04:21;0.90;99.90
66422;DHT22;53228;51.380;0.098;2022-12-18T00:06:50;1.20;99.90
66422;DHT22;53228;51.380;0.098;2022-12-18T00:09:19;1.20;99.90
66422;DHT22;53228;51.380;0.098;2022-12-18T00:11:46;1.70;99.90
66422;DHT22;53228;51.380;0.098;2022-12-18T00:14:14;0.80;99.90
66422;DHT22;53228;51.380;0.098;2022-12-18T00:16:46;1.10;99.90
66422;DHT22;53228;51.380;0.098;2022-12-18T00:19:14;1.30;99.90
66422;DHT22;53228;51.380;0.098;2022-12-18T00:21:43;0.70;99.90
66422;DHT22;53228;51.380;0.098;2022-12-18T00:24:11;1.50;99.90
66422;DHT22;53228;51.380;0.098;2022-12-18T00:29:10;1.00;99.90
66422;DHT22;53228;51.380;0.098;2022-12-18T00:31:39;0.60;99.90
66422;DHT22;53228;51.380;0.098;2022-12-18T00:34:08;1.10;99.90
66422;DHT22;53228;51.380;0.098;2022-12-18T00:36:40;0.70;99.90
66422;DHT22;53228;51.380;0.098;2022-12-18T00:39:10;0.80;99.90
66422;DHT22;53228;51.380;0.098;2022-12-18T00:41:38;0.10;99.90
66422;DHT22;53228;51.380;0.098;2022-12-18T00:46:53;1.20;99.90
66422;DHT22;53228;51.380;0.098;2022-12-18T00:49:21;1.40;99.90
66422;DHT22;53228;51.380;0.098;2022-12-18T00:51:49;1.70;99.90
66422;DHT22;53228;51.380;0.098;2022-12-18T00:54:17;1.40;99.90
66422;DHT22;53228;51.380;0.098;2022-12-18T00:56:45;0.40;99.90
66422;DHT22;53228;51.380;0.098;2022-12-18T00:59:18;0.70;99.90
66422;DHT22;53228;51.380;0.098;2022-12-18T01:01:46;0.70;99.90
66422;DHT22;53228;51.380;0.098;2022-12-18T01:04:15;0.60;99.90
66422;DHT22;53228;51.380;0.098;2022-12-18T01:06:45;0.60;99.90
66422;DHT22;53228;51.380;0.098;2022-12-18T01:09:13;0.50;99.90
66422;DHT22;53228;51.380;0.098;2022-12-18T01:11:40;0.50;99.90
66422;DHT22;53228;51.380;0.098;2022-12-18T01:14:09;0.50;99.90
66422;DHT22;53228;51.380;0.098;2022-12-18T01:16:37;0.40;99.90
66422;DHT22;53228;51.380;0.098;2022-12-18T01:19:05;0.30;99.90
66422;DHT22;53228;51.380;0.098;2022-12-18T01:21:33;0.40;99.90
66422;DHT22;53228;51.380;0.098;2022-12-18T01:24:04;0.30;99.90
66422;DHT22;53228;51.380;0.098;2022-12-18T01:26:32;0.30;99.90
66422;DHT22;53228;51.380;0.098;2022-12-18T01:28:59;0.30;99.90
66422;DHT22;53228;51.380;0.098;2022-12-18T01:31:30;0.30;99.90
66422;DHT22;53228;51.380;0.098;2022-12-18T01:34:00;0.30;99.90
66422;DHT22;53228;51.380;0.098;2022-12-18T01:36:34;0.30;99.90
66422;DHT22;53228;51.380;0.098;2022-12-18T01:39:06;0.20;99.90
66422;DHT22;53228;51.380;0.098;2022-12-18T01:41:35;0.20;99.90
66422;DHT22;53228;51.380;0.098;2022-12-18T01:45:00;0.10;99.90
66422;DHT22;53228;51.380;0.098;2022-12-18T01:52:47;0.00;99.90
66422;DHT22;53228;51.380;0.098;2022-12-18T01:55:19;0.00;99.90
66422;DHT22;53228;51.380;0.098;2022-12-18T01:57:48;0.00;99.90
66422;DHT22;53228;51.380;0.098;2022-12-18T02:00:20;-0.10;99.90
66422;DHT22;53228;51.380;0.098;2022-12-18T02:02:48;-0.10;99.90
66422;DHT22;53228;51.380;0.098;2022-12-18T02:05:19;-0.10;99.90
66422;DHT22;53228;51.380;0.098;2022-12-18T02:08:09;0.00;99.90
66422;DHT22;53228;51.380;0.098;2022-12-18T02:13:44;-0.10;99.90
66422;DHT22;53228;51.380;0.098;2022-12-18T02:19:06;-0.20;99.90
66422;DHT22;53228;51.380;0.098;2022-12-18T02:21:58;0.20;99.90
66422;DHT22;53228;51.380;0.098;2022-12-18T02:24:45;-0.20;99.90
66422;DHT22;53228;51.380;0.098;2022-12-18T02:27:18;0.30;99.90
66422;DHT22;53228;51.380;0.098;2022-12-18T02:29:51;0.10;99.90
66422;DHT22;53228;51.380;0.098;2022-12-18T02:32:32;-0.40;99.90
66422;DHT22;53228;51.380;0.098;2022-12-18T02:35:04;-0.40;99.90
66422;DHT22;53228;51.380;0.098;2022-12-18T02:37:35;-0.30;99.90
66422;DHT22;53228;51.380;0.098;2022-12-18T02:40:08;-0.60;99.90
66422;DHT22;53228;51.380;0.098;2022-12-18T02:42:37;-0.90;99.90
66422;DHT22;53228;51.380;0.098;2022-12-18T02:45:07;-0.90;99.90
66422;DHT22;53228;51.380;0.098;2022-12-18T02:47:40;-0.30;99.90
66422;DHT22;53228;51.380;0.098;2022-12-18T02:50:31;0.20;99.90
66422;DHT22;53228;51.380;0.098;2022-12-18T02:53:45;0.40;99.90
66422;DHT22;53228;51.380;0.098;2022-12-18T02:56:20;-0.40;99.90
66422;DHT22;53228;51.380;0.098;2022-12-18T02:59:09;-0.70;99.90
66422;DHT22;53228;51.380;0.098;2022-12-18T03:01:57;0.60;99.90
66422;DHT22;53228;51.380;0.098;2022-12-18T03:07:06;-0.70;99.90
66422;DHT22;53228;51.380;0.098;2022-12-18T03:09:39;-0.40;99.90
66422;DHT22;53228;51.380;0.098;2022-12-18T03:12:32;-0.30;99.90
66422;DHT22;53228;51.380;0.098;2022-12-18T03:15:03;-0.80;99.90
66422;DHT22;53228;51.380;0.098;2022-12-18T03:17:33;-0.30;99.90
66422;DHT22;53228;51.380;0.098;2022-12-18T03:20:12;-0.70;99.90
66422;DHT22;53228;51.380;0.098;2022-12-18T03:22:43;-0.70;99.90
66422;DHT22;53228;51.380;0.098;2022-12-18T03:25:15;0.20;99.90
66422;DHT22;53228;51.380;0.098;2022-12-18T03:27:46;-0.30;99.90
66422;DHT22;53228;51.380;0.098;2022-12-18T03:30:16;-1.00;99.90
66422;DHT22;53228;51.380;0.098;2022-12-18T03:33:46;0.30;99.90
66422;DHT22;53228;51.380;0.098;2022-12-18T03:35:45;0.30;99.90
66422;DHT22;53228;51.380;0.098;2022-12-18T03:38:13;-1.10;99.90
66422;DHT22;53228;51.380;0.098;2022-12-18T03:43:52;0.80;99.90
66422;DHT22;53228;51.380;0.098;2022-12-18T03:46:30;0.20;99.90
66422;DHT22;53228;51.380;0.098;2022-12-18T03:49:11;0.40;99.90
66422;DHT22;53228;51.380;0.098;2022-12-18T03:51:55;0.10;99.90
66422;DHT22;53228;51.380;0.098;2022-12-18T03:54:27;-0.10;99.90
66422;DHT22;53228;51.380;0.098;2022-12-18T03:57:10;-0.10;99.90
66422;DHT22;53228;51.380;0.098;2022-12-18T03:59:39;-0.80;99.90
66422;DHT22;53228;51.380;0.098;2022-12-18T04:04:38;-0.10;99.90
66422;DHT22;53228;51.380;0.098;2022-12-18T04:07:07;-0.20;99.90
66422;DHT22;53228;51.380;0.098;2022-12-18T04:09:39;-0.10;99.90
66422;DHT22;53228;51.380;0.098;2022-12-18T04:12:09;-0.40;99.90
66422;DHT22;53228;51.380;0.098;2022-12-18T04:14:36;0.20;99.90
66422;DHT22;53228;51.380;0.098;2022-12-18T04:17:07;-0.60;99.90
66422;DHT22;53228;51.380;0.098;2022-12-18T04:19:35;0.30;99.90
66422;DHT22;53228;51.380;0.098;2022-12-18T04:22:03;0.30;99.90
66422;DHT22;53228;51.380;0.098;2022-12-18T04:24:38;-0.20;99.90
66422;DHT22;53228;51.380;0.098;2022-12-18T04:27:13;-1.00;99.90
66422;DHT22;53228;51.380;0.098;2022-12-18T04:29:48;0.30;99.90
66422;DHT22;53228;51.380;0.098;2022-12-18T04:32:17;-0.40;99.90
66422;DHT22;53228;51.380;0.098;2022-12-18T04:34:46;0.30;99.90
66422;DHT22;53228;51.380;0.098;2022-12-18T04:42:20;0.00;99.90
66422;DHT22;53228;51.380;0.098;2022-12-18T04:44:47;-0.40;99.90
66422;DHT22;53228;51.380;0.098;2022-12-18T04:47:15;0.40;99.90
66422;DHT22;53228;51.380;0.098;2022-12-18T04:49:42;-0.20;99.90
66422;DHT22;53228;51.380;0.098;2022-12-18T04:52:10;-0.10;99.90
66422;DHT22;53228;51.380;0.098;2022-12-18T04:54:38;0.10;99.90
66422;DHT22;53228;51.380;0.098;2022-12-18T04:57:05;0.40;99.90
66422;DHT22;53228;51.380;0.098;2022-12-18T04:59:33;0.00;99.90
66422;DHT22;53228;51.380;0.098;2022-12-18T05:02:00;0.90;99.90
66422;DHT22;53228;51.380;0.098;2022-12-18T05:04:28;-0.30;99.90
66422;DHT22;53228;51.380;0.098;2022-12-18T05:06:55;-0.20;99.90
66422;DHT22;53228;51.380;0.098;2022-12-18T05:09:23;0.60;99.90
66422;DHT22;53228;51.380;0.098;2022-12-18T05:11:51;-0.30;99.90
66422;DHT22;53228;51.380;0.098;2022-12-18T05:14:18;0.20;99.90
66422;DHT22;53228;51.380;0.098;2022-12-18T05:16:46;-0.50;99.90
66422;DHT22;53228;51.380;0.098;2022-12-18T05:19:14;0.20;99.90
66422;DHT22;53228;51.380;0.098;2022-12-18T05:21:41;0.50;99.90
66422;DHT22;53228;51.380;0.098;2022-12-18T05:24:09;0.40;99.90
66422;DHT22;53228;51.380;0.098;2022-12-18T05:26:37;0.20;99.90
66422;DHT22;53228;51.380;0.098;2022-12-18T05:29:04;-0.30;99.90
66422;DHT22;53228;51.380;0.098;2022-12-18T05:31:32;-0.70;99.90
66422;DHT22;53228;51.380;0.098;2022-12-18T05:34:06;0.00;99.90
66422;DHT22;53228;51.380;0.098;2022-12-18T05:36:34;-0.40;99.90
66422;DHT22;53228;51.380;0.098;2022-12-18T05:41:33;0.00;99.90
66422;DHT22;53228;51.380;0.098;2022-12-18T05:44:01;0.00;99.90
66422;DHT22;53228;51.380;0.098;2022-12-18T05:46:28;-0.30;99.90
66422;DHT22;53228;51.380;0.098;2022-12-18T05:48:59;0.20;99.90
66422;DHT22;53228;51.380;0.098;2022-12-18T05:51:28;0.40;99.90
66422;DHT22;53228;51.380;0.098;2022-12-18T05:53:56;-0.30;99.90
66422;DHT22;53228;51.380;0.098;2022-12-18T05:56:23;-0.20;99.90
66422;DHT22;53228;51.380;0.098;2022-12-18T05:58:53;-0.20;99.90
66422;DHT22;53228;51.380;0.098;2022-12-18T06:01:23;0.60;99.90
66422;DHT22;53228;51.380;0.098;2022-12-18T06:03:52;0.30;99.90
66422;DHT22;53228;51.380;0.098;2022-12-18T06:06:22;0.40;99.90
66422;DHT22;53228;51.380;0.098;2022-12-18T06:08:51;0.80;99.90
66422;DHT22;53228;51.380;0.098;2022-12-18T06:11:21;0.40;99.90
66422;DHT22;53228;51.380;0.098;2022-12-18T06:13:50;0.40;99.90
66422;DHT22;53228;51.380;0.098;2022-12-18T06:16:25;-0.10;99.90
66422;DHT22;53228;51.380;0.098;2022-12-18T06:18:57;-0.40;99.90
66422;DHT22;53228;51.380;0.098;2022-12-18T06:21:26;0.40;99.90
66422;DHT22;53228;51.380;0.098;2022-12-18T06:26:23;0.40;99.90
66422;DHT22;53228;51.380;0.098;2022-12-18T06:28:54;0.50;99.90
66422;DHT22;53228;51.380;0.098;2022-12-18T06:31:22;0.50;99.90
66422;DHT22;53228;51.380;0.098;2022-12-18T06:33:50;0.10;99.90
66422;DHT22;53228;51.380;0.098;2022-12-18T06:36:17;0.50;99.90
66422;DHT22;53228;51.380;0.098;2022-12-18T06:38:45;0.60;99.90
66422;DHT22;53228;51.380;0.098;2022-12-18T06:41:18;0.50;99.90
66422;DHT22;53228;51.380;0.098;2022-12-18T06:43:46;0.50;99.90
66422;DHT22;53228;51.380;0.098;2022-12-18T06:46:13;-0.10;99.90
66422;DHT22;53228;51.380;0.098;2022-12-18T06:48:41;1.50;99.90
66422;DHT22;53228;51.380;0.098;2022-12-18T06:51:09;0.40;99.90
66422;DHT22;53228;51.380;0.098;2022-12-18T06:53:37;1.00;99.90
66422;DHT22;53228;51.380;0.098;2022-12-18T06:56:06;1.40;99.90
66422;DHT22;53228;51.380;0.098;2022-12-18T06:58:38;1.00;99.90
66422;DHT22;53228;51.380;0.098;2022-12-18T07:01:09;0.60;99.90
66422;DHT22;53228;51.380;0.098;2022-12-18T07:03:38;0.20;99.90
66422;DHT22;53228;51.380;0.098;2022-12-18T07:06:17;0.60;99.90
66422;DHT22;53228;51.380;0.098;2022-12-18T07:11:14;0.80;99.90
66422;DHT22;53228;51.380;0.098;2022-12-18T07:13:42;0.10;99.90
66422;DHT22;53228;51.380;0.098;2022-12-18T07:16:16;-0.30;99.90
66422;DHT22;53228;51.380;0.098;2022-12-18T07:18:52;-0.30;99.90
66422;DHT22;53228;51.380;0.098;2022-12-18T07:21:22;0.30;99.90
66422;DHT22;53228;51.380;0.098;2022-12-18T07:23:50;0.20;99.90
66422;DHT22;53228;51.380;0.098;2022-12-18T07:26:19;0.50;99.90
66422;DHT22;53228;51.380;0.098;2022-12-18T07:28:47;0.20;99.90
66422;DHT22;53228;51.380;0.098;2022-12-18T07:31:19;-0.40;99.90
66422;DHT22;53228;51.380;0.098;2022-12-18T07:33:48;0.10;99.90
66422;DHT22;53228;51.380;0.098;2022-12-18T07:36:16;0.10;99.90
66422;DHT22;53228;51.380;0.098;2022-12-18T07:38:46;-0.30;99.90
66422;DHT22;53228;51.380;0.098;2022-12-18T07:41:14;-0.30;99.90
66422;DHT22;53228;51.380;0.098;2022-12-18T07:46:12;0.10;99.90
66422;DHT22;53228;51.380;0.098;2022-12-18T07:48:44;0.20;99.90
66422;DHT22;53228;51.380;0.098;2022-12-18T07:51:17;1.10;99.90
66422;DHT22;53228;51.380;0.098;2022-12-18T07:53:45;0.60;99.90
66422;DHT22;53228;51.380;0.098;2022-12-18T07:58:54;0.60;99.90
66422;DHT22;53228;51.380;0.098;2022-12-18T08:01:22;0.20;99.90
66422;DHT22;53228;51.380;0.098;2022-12-18T08:03:50;0.50;99.90
66422;DHT22;53228;51.380;0.098;2022-12-18T08:08:50;0.70;99.90
66422;DHT22;53228;51.380;0.098;2022-12-18T08:11:18;0.90;99.90
66422;DHT22;53228;51.380;0.098;2022-12-18T08:13:46;1.10;99.90
66422;DHT22;53228;51.380;0.098;2022-12-18T08:16:14;1.60;99.90
66422;DHT22;53228;51.380;0.098;2022-12-18T08:18:41;0.30;99.90
66422;DHT22;53228;51.380;0.098;2022-12-18T08:21:14;0.80;99.90
66422;DHT22;53228;51.380;0.098;2022-12-18T08:23:42;1.00;99.90
66422;DHT22;53228;51.380;0.098;2022-12-18T08:26:11;0.10;99.90
66422;DHT22;53228;51.380;0.098;2022-12-18T08:28:39;0.90;99.90
66422;DHT22;53228;51.380;0.098;2022-12-18T08:31:08;1.10;99.90
66422;DHT22;53228;51.380;0.098;2022-12-18T08:33:37;0.60;99.90
66422;DHT22;53228;51.380;0.098;2022-12-18T08:36:09;1.40;99.90
66422;DHT22;53228;51.380;0.098;2022-12-18T08:38:37;1.80;99.90
66422;DHT22;53228;51.380;0.098;2022-12-18T08:41:07;1.10;99.90
66422;DHT22;53228;51.380;0.098;2022-12-18T08:43:35;0.80;99.90
66422;DHT22;53228;51.380;0.098;2022-12-18T08:46:23;0.40;99.90
66422;DHT22;53228;51.380;0.098;2022-12-18T08:48:52;0.50;99.90
66422;DHT22;53228;51.380;0.098;2022-12-18T08:51:20;0.80;99.90
66422;DHT22;53228;51.380;0.098;2022-12-18T08:53:48;-0.10;99.90
66422;DHT22;53228;51.380;0.098;2022-12-18T08:56:16;1.30;99.90
66422;DHT22;53228;51.380;0.098;2022-12-18T08:58:44;1.30;99.90
66422;DHT22;53228;51.380;0.098;2022-12-18T09:01:12;1.10;99.90
66422;DHT22;53228;51.380;0.098;2022-12-18T09:03:41;1.10;99.90
66422;DHT22;53228;51.380;0.098;2022-12-18T09:06:09;1.00;99.90
66422;DHT22;53228;51.380;0.098;2022-12-18T09:08:40;1.30;99.90
66422;DHT22;53228;51.380;0.098;2022-12-18T09:11:24;1.40;99.90
66422;DHT22;53228;51.380;0.098;2022-12-18T09:13:53;0.60;99.90
66422;DHT22;53228;51.380;0.098;2022-12-18T09:16:22;0.70;99.90
66422;DHT22;53228;51.380;0.098;2022-12-18T09:18:58;1.20;99.90
66422;DHT22;53228;51.380;0.098;2022-12-18T09:21:29;1.90;99.90
66422;DHT22;53228;51.380;0.098;2022-12-18T09:26:27;1.60;99.90
66422;DHT22;53228;51.380;0.098;2022-12-18T09:28:54;1.40;99.90
66422;DHT22;53228;51.380;0.098;2022-12-18T09:33:55;0.80;99.90
66422;DHT22;53228;51.380;0.098;2022-12-18T09:36:26;1.40;99.90
66422;DHT22;53228;51.380;0.098;2022-12-18T09:38:53;0.80;99.90
66422;DHT22;53228;51.380;0.098;2022-12-18T09:47:16;1.20;99.90
66422;DHT22;53228;51.380;0.098;2022-12-18T09:49:48;0.30;99.90
66422;DHT22;53228;51.380;0.098;2022-12-18T09:55:11;1.00;99.90
66422;DHT22;53228;51.380;0.098;2022-12-18T09:57:45;1.60;99.90
66422;DHT22;53228;51.380;0.098;2022-12-18T10:00:20;1.80;99.90
66422;DHT22;53228;51.380;0.098;2022-12-18T10:02:51;1.80;99.90
66422;DHT22;53228;51.380;0.098;2022-12-18T10:08:11;0.50;99.90
66422;DHT22;53228;51.380;0.098;2022-12-18T10:10:54;0.90;99.90
66422;DHT22;53228;51.380;0.098;2022-12-18T10:13:46;1.40;99.90
66422;DHT22;53228;51.380;0.098;2022-12-18T10:16:22;1.30;99.90
66422;DHT22;53228;51.380;0.098;2022-12-18T10:21:56;1.40;99.90
66422;DHT22;53228;51.380;0.098;2022-12-18T10:24:39;1.00;99.90
66422;DHT22;53228;51.380;0.098;2022-12-18T10:27:14;1.60;99.90
66422;DHT22;53228;51.380;0.098;2022-12-18T10:29:46;1.40;99.90
66422;DHT22;53228;51.380;0.098;2022-12-18T10:32:23;1.60;99.90
66422;DHT22;53228;51.380;0.098;2022-12-18T10:34:55;2.40;99.90
66422;DHT22;53228;51.380;0.098;2022-12-18T10:37:29;1.50;99.90
66422;DHT22;53228;51.380;0.098;2022-12-18T10:47:35;2.00;99.90
66422;DHT22;53228;51.380;0.098;2022-12-18T10:55:03;1.70;99.90
66422;DHT22;53228;51.380;0.098;2022-12-18T10:57:35;1.70;99.90
66422;DHT22;53228;51.380;0.098;2022-12-18T11:00:28;1.80;99.90
66422;DHT22;53228;51.380;0.098;2022-12-18T11:03:39;2.30;99.90
66422;DHT22;53228;51.380;0.098;2022-12-18T11:11:20;1.90;99.90
66422;DHT22;53228;51.380;0.098;2022-12-18T11:14:12;2.60;99.90
66422;DHT22;53228;51.380;0.098;2022-12-18T11:16:45;2.00;99.90
66422;DHT22;53228;51.380;0.098;2022-12-18T11:22:59;2.10;99.90
66422;DHT22;53228;51.380;0.098;2022-12-18T11:25:30;2.10;99.90
66422;DHT22;53228;51.380;0.098;2022-12-18T11:28:03;2.50;99.90
66422;DHT22;53228;51.380;0.098;2022-12-18T11:30:33;2.40;99.90
66422;DHT22;53228;51.380;0.098;2022-12-18T11:33:13;1.80;99.90
66422;DHT22;53228;51.380;0.098;2022-12-18T12:27:06;1.20;99.90
66422;DHT22;53228;51.380;0.098;2022-12-18T12:38:08;2.00;99.90
66422;DHT22;53228;51.380;0.098;2022-12-18T12:41:00;2.00;99.90
66422;DHT22;53228;51.380;0.098;2022-12-18T12:43:44;1.50;99.90
66422;DHT22;53228;51.380;0.098;2022-12-18T12:46:19;2.40;99.90
66422;DHT22;53228;51.380;0.098;2022-12-18T12:48:59;1.90;99.90
66422;DHT22;53228;51.380;0.098;2022-12-18T12:51:40;1.80;99.90
66422;DHT22;53228;51.380;0.098;2022-12-18T12:54:24;1.50;99.90
66422;DHT22;53228;51.380;0.098;2022-12-18T12:59:30;1.90;99.90
66422;DHT22;53228;51.380;0.098;2022-12-18T13:02:14;1.40;99.90
66422;DHT22;53228;51.380;0.098;2022-12-18T13:13:13;2.90;99.90
66422;DHT22;53228;51.380;0.098;2022-12-18T13:16:06;1.90;99.90
66422;DHT22;53228;51.380;0.098;2022-12-18T13:18:35;1.70;99.90
66422;DHT22;53228;51.380;0.098;2022-12-18T13:21:25;2.60;99.90
66422;DHT22;53228;51.380;0.098;2022-12-18T13:23:55;2.40;99.90
66422;DHT22;53228;51.380;0.098;2022-12-18T13:28:57;1.20;99.90
66422;DHT22;53228;51.380;0.098;2022-12-18T13:45:37;1.90;99.90
66422;DHT22;53228;51.380;0.098;2022-12-18T13:48:17;2.30;99.90
66422;DHT22;53228;51.380;0.098;2022-12-18T13:50:53;1.60;99.90
66422;DHT22;53228;51.380;0.098;2022-12-18T13:53:30;1.90;99.90
66422;DHT22;53228;51.380;0.098;2022-12-18T13:56:00;2.10;99.90
66422;DHT22;53228;51.380;0.098;2022-12-18T14:00:55;2.90;99.90
66422;DHT22;53228;51.380;0.098;2022-12-18T14:03:27;1.70;99.90
66422;DHT22;53228;51.380;0.098;2022-12-18T14:06:07;1.70;99.90
66422;DHT22;53228;51.380;0.098;2022-12-18T14:08:39;1.70;99.90
66422;DHT22;53228;51.380;0.098;2022-12-18T14:11:20;1.80;99.90
66422;DHT22;53228;51.380;0.098;2022-12-18T14:13:49;1.60;99.90
66422;DHT22;53228;51.380;0.098;2022-12-18T14:16:17;1.80;99.90
66422;DHT22;53228;51.380;0.098;2022-12-18T14:18:50;2.10;99.90
66422;DHT22;53228;51.380;0.098;2022-12-18T14:21:25;2.10;99.90
66422;DHT22;53228;51.380;0.098;2022-12-18T14:24:23;2.00;99.90
66422;DHT22;53228;51.380;0.098;2022-12-18T14:26:51;2.10;99.90
66422;DHT22;53228;51.380;0.098;2022-12-18T14:29:25;2.30;99.90
66422;DHT22;53228;51.380;0.098;2022-12-18T14:32:13;2.00;99.90
66422;DHT22;53228;51.380;0.098;2022-12-18T14:34:53;1.70;99.90
66422;DHT22;53228;51.380;0.098;2022-12-18T14:37:26;1.40;99.90
66422;DHT22;53228;51.380;0.098;2022-12-18T14:39:58;2.10;99.90
66422;DHT22;53228;51.380;0.098;2022-12-18T14:42:36;2.10;99.90
66422;DHT22;53228;51.380;0.098;2022-12-18T14:50:41;2.20;99.90
66422;DHT22;53228;51.380;0.098;2022-12-18T14:53:20;2.00;99.90
66422;DHT22;53228;51.380;0.098;2022-12-18T14:55:50;1.70;99.90
66422;DHT22;53228;51.380;0.098;2022-12-18T14:58:18;2.30;99.90
66422;DHT22;53228;51.380;0.098;2022-12-18T15:00:46;2.40;99.90
66422;DHT22;53228;51.380;0.098;2022-12-18T15:03:18;3.10;99.90
66422;DHT22;53228;51.380;0.098;2022-12-18T15:05:47;3.10;99.90
66422;DHT22;53228;51.380;0.098;2022-12-18T15:10:57;2.40;99.90
66422;DHT22;53228;51.380;0.098;2022-12-18T15:13:24;2.70;99.90
66422;DHT22;53228;51.380;0.098;2022-12-18T15:15:54;2.50;99.90
66422;DHT22;53228;51.380;0.098;2022-12-18T15:18:31;2.40;99.90
66422;DHT22;53228;51.380;0.098;2022-12-18T15:21:08;2.50;99.90
66422;DHT22;53228;51.380;0.098;2022-12-18T15:23:52;2.50;99.90
66422;DHT22;53228;51.380;0.098;2022-12-18T15:26:21;3.20;99.90
66422;DHT22;53228;51.380;0.098;2022-12-18T15:28:52;1.70;99.90
66422;DHT22;53228;51.380;0.098;2022-12-18T15:31:33;2.60;99.90
66422;DHT22;53228;51.380;0.098;2022-12-18T15:34:19;1.30;99.90
66422;DHT22;53228;51.380;0.098;2022-12-18T15:36:49;3.10;99.90
66422;DHT22;53228;51.380;0.098;2022-12-18T15:39:17;2.70;99.90
66422;DHT22;53228;51.380;0.098;2022-12-18T15:41:45;2.70;99.90
66422;DHT22;53228;51.380;0.098;2022-12-18T15:44:32;2.20;99.90
66422;DHT22;53228;51.380;0.098;2022-12-18T15:47:00;3.40;99.90
66422;DHT22;53228;51.380;0.098;2022-12-18T15:49:28;3.00;99.90
66422;DHT22;53228;51.380;0.098;2022-12-18T15:51:58;2.40;99.90
66422;DHT22;53228;51.380;0.098;2022-12-18T15:54:26;3.60;99.90
66422;DHT22;53228;51.380;0.098;2022-12-18T15:57:13;4.10;99.90
66422;DHT22;53228;51.380;0.098;2022-12-18T15:59:55;2.80;99.90
66422;DHT22;53228;51.380;0.098;2022-12-18T16:02:25;3.00;99.90
66422;DHT22;53228;51.380;0.098;2022-12-18T16:04:53;3.30;99.90
66422;DHT22;53228;51.380;0.098;2022-12-18T16:07:21;4.20;99.90
66422;DHT22;53228;51.380;0.098;2022-12-18T16:09:52;3.10;99.90
66422;DHT22;53228;51.380;0.098;2022-12-18T16:12:21;2.30;99.90
66422;DHT22;53228;51.380;0.098;2022-12-18T16:14:50;2.50;99.90
66422;DHT22;53228;51.380;0.098;2022-12-18T16:17:18;3.00;99.90
66422;DHT22;53228;51.380;0.098;2022-12-18T16:19:45;2.80;99.90
66422;DHT22;53228;51.380;0.098;2022-12-18T16:22:24;2.50;99.90
66422;DHT22;53228;51.380;0.098;2022-12-18T16:24:56;2.80;99.90
66422;DHT22;53228;51.380;0.098;2022-12-18T16:27:26;3.30;99.90
66422;DHT22;53228;51.380;0.098;2022-12-18T16:29:53;3.20;99.90
66422;DHT22;53228;51.380;0.098;2022-12-18T16:32:22;2.70;99.90
66422;DHT22;53228;51.380;0.098;2022-12-18T16:34:51;3.60;99.90
66422;DHT22;53228;51.380;0.098;2022-12-18T16:39:46;3.40;99.90
66422;DHT22;53228;51.380;0.098;2022-12-18T16:42:16;3.60;99.90
66422;DHT22;53228;51.380;0.098;2022-12-18T16:44:47;3.50;99.90
66422;DHT22;53228;51.380;0.098;2022-12-18T16:47:15;3.50;99.90
66422;DHT22;53228;51.380;0.098;2022-12-18T16:49:43;4.00;99.90
66422;DHT22;53228;51.380;0.098;2022-12-18T16:52:18;3.40;99.90
66422;DHT22;53228;51.380;0.098;2022-12-18T16:54:46;3.60;99.90
66422;DHT22;53228;51.380;0.098;2022-12-18T16:57:16;4.10;99.90
66422;DHT22;53228;51.380;0.098;2022-12-18T16:59:44;4.10;99.90
66422;DHT22;53228;51.380;0.098;2022-12-18T17:02:21;3.20;99.90
66422;DHT22;53228;51.380;0.098;2022-12-18T17:04:53;3.90;99.90
66422;DHT22;53228;51.380;0.098;2022-12-18T17:07:21;4.10;99.90
66422;DHT22;53228;51.380;0.098;2022-12-18T17:09:49;4.30;99.90
66422;DHT22;53228;51.380;0.098;2022-12-18T17:12:17;3.40;99.90
66422;DHT22;53228;51.380;0.098;2022-12-18T17:14:45;4.10;99.90
66422;DHT22;53228;51.380;0.098;2022-12-18T17:17:13;3.40;99.90
66422;DHT22;53228;51.380;0.098;2022-12-18T17:19:51;3.90;99.90
66422;DHT22;53228;51.380;0.098;2022-12-18T17:22:20;3.90;99.90
66422;DHT22;53228;51.380;0.098;2022-12-18T17:27:17;4.80;99.90
66422;DHT22;53228;51.380;0.098;2022-12-18T17:29:44;3.90;99.90
66422;DHT22;53228;51.380;0.098;2022-12-18T17:32:16;4.00;99.90
66422;DHT22;53228;51.380;0.098;2022-12-18T17:34:44;4.30;99.90
66422;DHT22;53228;51.380;0.098;2022-12-18T17:37:12;3.50;99.90
66422;DHT22;53228;51.380;0.098;2022-12-18T17:39:39;4.50;99.90
66422;DHT22;53228;51.380;0.098;2022-12-18T17:42:08;4.20;99.90
66422;DHT22;53228;51.380;0.098;2022-12-18T17:44:42;4.20;99.90
66422;DHT22;53228;51.380;0.098;2022-12-18T17:47:12;4.10;99.90
66422;DHT22;53228;51.380;0.098;2022-12-18T17:52:09;5.20;99.90
66422;DHT22;53228;51.380;0.098;2022-12-18T17:54:39;4.80;99.90
66422;DHT22;53228;51.380;0.098;2022-12-18T17:57:08;4.00;99.90
66422;DHT22;53228;51.380;0.098;2022-12-18T17:59:36;4.40;99.90
66422;DHT22;53228;51.380;0.098;2022-12-18T18:02:04;4.40;99.90
66422;DHT22;53228;51.380;0.098;2022-12-18T18:04:32;4.40;99.90
66422;DHT22;53228;51.380;0.098;2022-12-18T18:07:00;5.10;99.90
66422;DHT22;53228;51.380;0.098;2022-12-18T18:09:28;4.30;99.90
66422;DHT22;53228;51.380;0.098;2022-12-18T18:11:55;4.30;99.90
66422;DHT22;53228;51.380;0.098;2022-12-18T18:14:42;4.40;99.90
66422;DHT22;53228;51.380;0.098;2022-12-18T18:17:09;5.10;99.90
66422;DHT22;53228;51.380;0.098;2022-12-18T18:19:37;4.20;99.90
66422;DHT22;53228;51.380;0.098;2022-12-18T18:22:06;3.80;99.90
66422;DHT22;53228;51.380;0.098;2022-12-18T18:24:34;4.60;99.90
66422;DHT22;53228;51.380;0.098;2022-12-18T18:27:02;3.90;99.90
66422;DHT22;53228;51.380;0.098;2022-12-18T18:31:58;4.50;99.90
66422;DHT22;53228;51.380;0.098;2022-12-18T18:34:27;4.80;99.90
66422;DHT22;53228;51.380;0.098;2022-12-18T18:36:55;5.20;99.90
66422;DHT22;53228;51.380;0.098;2022-12-18T18:39:23;4.60;99.90
66422;DHT22;53228;51.380;0.098;2022-12-18T18:41:51;5.10;99.90
66422;DHT22;53228;51.380;0.098;2022-12-18T18:44:19;5.20;99.90
66422;DHT22;53228;51.380;0.098;2022-12-18T18:46:56;5.00;99.90
66422;DHT22;53228;51.380;0.098;2022-12-18T18:49:25;4.30;99.90
66422;DHT22;53228;51.380;0.098;2022-12-18T18:51:55;4.60;99.90
66422;DHT22;53228;51.380;0.098;2022-12-18T18:54:24;4.80;99.90
66422;DHT22;53228;51.380;0.098;2022-12-18T18:56:52;4.90;99.90
66422;DHT22;53228;51.380;0.098;2022-12-18T18:59:40;5.50;99.90
66422;DHT22;53228;51.380;0.098;2022-12-18T19:02:11;4.90;99.90
66422;DHT22;53228;51.380;0.098;2022-12-18T19:04:39;5.20;99.90
66422;DHT22;53228;51.380;0.098;2022-12-18T19:07:14;5.20;99.90
66422;DHT22;53228;51.380;0.098;2022-12-18T19:09:57;5.00;99.90
66422;DHT22;53228;51.380;0.098;2022-12-18T19:15:17;6.00;99.90
66422;DHT22;53228;51.380;0.098;2022-12-18T19:17:44;5.00;99.90
66422;DHT22;53228;51.380;0.098;2022-12-18T19:20:14;5.50;99.90
66422;DHT22;53228;51.380;0.098;2022-12-18T19:22:42;5.80;99.90
66422;DHT22;53228;51.380;0.098;2022-12-18T19:25:14;5.10;99.90
66422;DHT22;53228;51.380;0.098;2022-12-18T19:27:42;5.40;99.90
66422;DHT22;53228;51.380;0.098;2022-12-18T19:30:10;5.30;99.90
66422;DHT22;53228;51.380;0.098;2022-12-18T19:32:37;5.60;99.90